Turner, Michigan
Current Conditions -  °F | °C
As of 12:13 AM on Saturday 25 Oct 2014 (Local Time) from KOSC Reporting Station
Haze Haze  
Wind Chill: 38°   Ceiling: 700
Heat Index: 42°   Visibility: 1mi
Dew Point: 42°   Wind: 6mph
Humidity: 99%   Direction: 220°SW
Pressure: 29.88"   Gusts: NA
Location:  44.14°N, 83.79°W
Report Text: KOSC 250413Z AUTO 22005KT 1SM BR VV007 05/05 A2988 RMK AO2 VIS 1/2V4 T00550053
Loading
Personal Weather Stations






























Interactive Weather Map
Tropical Storm Tracking
New forecast layout! Learn more

10-Day Weather Forecast

Advertisements
Track Severe Weather on mobile